Bradninch, United Kingdom
Current Conditions -  °F | °C
As of 2:20 PM on Thursday 27 Nov 2014 (Local Time) from EGTE Reporting Station
Moderate Rain Moderate Rain  
Wind Chill:   Ceiling: 2000
Heat Index:   Visibility: 2.1mi
Dew Point:   Wind: 2mph
Humidity: 100%   Direction: NA
Pressure: 29.5"   Gusts: NA
Location:  50.83°N, 3.42°W
Report Text: EGTE 271420Z VRB02KT 3500 RA BR FEW002 SCT007 BKN020 06/06 Q0999
Loading
Personal Weather Stations






























Interactive Weather Map New forecast layout! Learn more

10-Day Weather Forecast

Advertisements
Track Severe Weather on mobile